sensor_id;sensor_type;location;lat;lon;timestamp;P1;durP1;ratioP1;P2;durP2;ratioP2
27161;SDS011;54464;50.558;9.704;2023-07-30T00:02:01;5.17;;;3.83;;
27161;SDS011;54464;50.558;9.704;2023-07-30T00:04:29;3.93;;;3.40;;
27161;SDS011;54464;50.558;9.704;2023-07-30T00:06:55;4.37;;;3.97;;
27161;SDS011;54464;50.558;9.704;2023-07-30T00:09:21;3.73;;;3.43;;
27161;SDS011;54464;50.558;9.704;2023-07-30T00:11:46;4.13;;;3.80;;
27161;SDS011;54464;50.558;9.704;2023-07-30T00:14:12;3.77;;;3.47;;
27161;SDS011;54464;50.558;9.704;2023-07-30T00:16:37;4.30;;;3.60;;
27161;SDS011;54464;50.558;9.704;2023-07-30T00:19:03;4.03;;;3.73;;
27161;SDS011;54464;50.558;9.704;2023-07-30T00:21:28;4.30;;;3.90;;
27161;SDS011;54464;50.558;9.704;2023-07-30T00:23:54;3.67;;;3.33;;
27161;SDS011;54464;50.558;9.704;2023-07-30T00:26:20;3.50;;;3.10;;
27161;SDS011;54464;50.558;9.704;2023-07-30T00:28:45;4.93;;;3.67;;
27161;SDS011;54464;50.558;9.704;2023-07-30T00:31:14;4.43;;;3.10;;
27161;SDS011;54464;50.558;9.704;2023-07-30T00:33:39;3.73;;;3.43;;
27161;SDS011;54464;50.558;9.704;2023-07-30T00:36:05;6.63;;;3.93;;
27161;SDS011;54464;50.558;9.704;2023-07-30T00:38:30;3.70;;;3.40;;
27161;SDS011;54464;50.558;9.704;2023-07-30T00:40:56;4.13;;;3.40;;
27161;SDS011;54464;50.558;9.704;2023-07-30T00:43:21;3.23;;;3.00;;
27161;SDS011;54464;50.558;9.704;2023-07-30T00:45:47;5.20;;;3.37;;
27161;SDS011;54464;50.558;9.704;2023-07-30T00:48:13;3.50;;;3.20;;
27161;SDS011;54464;50.558;9.704;2023-07-30T00:50:40;3.33;;;3.03;;
27161;SDS011;54464;50.558;9.704;2023-07-30T00:53:07;3.30;;;3.00;;
27161;SDS011;54464;50.558;9.704;2023-07-30T00:55:34;4.27;;;3.00;;
27161;SDS011;54464;50.558;9.704;2023-07-30T00:58:00;4.30;;;2.93;;
27161;SDS011;54464;50.558;9.704;2023-07-30T01:00:27;4.37;;;3.00;;
27161;SDS011;54464;50.558;9.704;2023-07-30T01:02:54;3.20;;;2.90;;
27161;SDS011;54464;50.558;9.704;2023-07-30T01:05:20;3.40;;;3.10;;
27161;SDS011;54464;50.558;9.704;2023-07-30T01:07:49;4.67;;;3.20;;
27161;SDS011;54464;50.558;9.704;2023-07-30T01:10:17;5.60;;;3.10;;
27161;SDS011;54464;50.558;9.704;2023-07-30T01:12:44;3.10;;;2.80;;
27161;SDS011;54464;50.558;9.704;2023-07-30T01:15:10;4.47;;;3.40;;
27161;SDS011;54464;50.558;9.704;2023-07-30T01:17:37;3.57;;;3.27;;
27161;SDS011;54464;50.558;9.704;2023-07-30T01:20:03;3.47;;;3.07;;
27161;SDS011;54464;50.558;9.704;2023-07-30T01:22:29;3.73;;;3.43;;
27161;SDS011;54464;50.558;9.704;2023-07-30T01:24:54;4.20;;;3.57;;
27161;SDS011;54464;50.558;9.704;2023-07-30T01:27:28;3.57;;;3.23;;
27161;SDS011;54464;50.558;9.704;2023-07-30T01:29:57;3.80;;;3.40;;
27161;SDS011;54464;50.558;9.704;2023-07-30T01:32:30;4.80;;;3.40;;
27161;SDS011;54464;50.558;9.704;2023-07-30T01:34:57;3.93;;;3.63;;
27161;SDS011;54464;50.558;9.704;2023-07-30T01:37:24;4.87;;;3.47;;
27161;SDS011;54464;50.558;9.704;2023-07-30T01:39:51;4.10;;;3.63;;
27161;SDS011;54464;50.558;9.704;2023-07-30T01:42:17;4.10;;;3.60;;
27161;SDS011;54464;50.558;9.704;2023-07-30T01:44:42;4.97;;;3.60;;
27161;SDS011;54464;50.558;9.704;2023-07-30T01:47:08;5.10;;;3.70;;
27161;SDS011;54464;50.558;9.704;2023-07-30T01:49:34;3.73;;;3.40;;
27161;SDS011;54464;50.558;9.704;2023-07-30T01:51:59;4.13;;;3.73;;
27161;SDS011;54464;50.558;9.704;2023-07-30T01:54:25;4.13;;;3.23;;
27161;SDS011;54464;50.558;9.704;2023-07-30T01:56:51;5.03;;;3.43;;
27161;SDS011;54464;50.558;9.704;2023-07-30T01:59:18;3.43;;;3.13;;
27161;SDS011;54464;50.558;9.704;2023-07-30T02:01:43;4.50;;;3.10;;
27161;SDS011;54464;50.558;9.704;2023-07-30T02:04:09;3.60;;;2.93;;
27161;SDS011;54464;50.558;9.704;2023-07-30T02:06:36;3.70;;;3.00;;
27161;SDS011;54464;50.558;9.704;2023-07-30T02:09:02;2.80;;;2.40;;
27161;SDS011;54464;50.558;9.704;2023-07-30T02:11:28;3.20;;;2.90;;
27161;SDS011;54464;50.558;9.704;2023-07-30T02:13:53;3.27;;;2.63;;
27161;SDS011;54464;50.558;9.704;2023-07-30T02:16:19;3.60;;;3.30;;
27161;SDS011;54464;50.558;9.704;2023-07-30T02:18:44;3.40;;;3.10;;
27161;SDS011;54464;50.558;9.704;2023-07-30T02:21:10;3.77;;;3.47;;
27161;SDS011;54464;50.558;9.704;2023-07-30T02:23:36;3.63;;;3.33;;
27161;SDS011;54464;50.558;9.704;2023-07-30T02:26:04;4.30;;;3.50;;
27161;SDS011;54464;50.558;9.704;2023-07-30T02:28:30;3.57;;;3.27;;
27161;SDS011;54464;50.558;9.704;2023-07-30T02:30:55;5.13;;;4.17;;
27161;SDS011;54464;50.558;9.704;2023-07-30T02:33:21;3.97;;;3.40;;
27161;SDS011;54464;50.558;9.704;2023-07-30T02:35:46;4.30;;;3.90;;
27161;SDS011;54464;50.558;9.704;2023-07-30T02:38:12;4.97;;;4.20;;
27161;SDS011;54464;50.558;9.704;2023-07-30T02:40:38;4.03;;;3.43;;
27161;SDS011;54464;50.558;9.704;2023-07-30T02:43:03;5.07;;;3.63;;
27161;SDS011;54464;50.558;9.704;2023-07-30T02:45:29;3.40;;;3.10;;
27161;SDS011;54464;50.558;9.704;2023-07-30T02:47:54;6.23;;;3.33;;
27161;SDS011;54464;50.558;9.704;2023-07-30T02:50:20;4.07;;;3.40;;
27161;SDS011;54464;50.558;9.704;2023-07-30T02:52:45;3.60;;;3.30;;
27161;SDS011;54464;50.558;9.704;2023-07-30T02:55:11;3.50;;;3.00;;
27161;SDS011;54464;50.558;9.704;2023-07-30T02:57:37;4.90;;;3.47;;
27161;SDS011;54464;50.558;9.704;2023-07-30T03:00:02;4.13;;;3.67;;
27161;SDS011;54464;50.558;9.704;2023-07-30T03:02:29;5.60;;;3.93;;
27161;SDS011;54464;50.558;9.704;2023-07-30T03:04:55;4.20;;;3.43;;
27161;SDS011;54464;50.558;9.704;2023-07-30T03:07:20;4.37;;;3.93;;
27161;SDS011;54464;50.558;9.704;2023-07-30T03:09:46;4.57;;;3.40;;
27161;SDS011;54464;50.558;9.704;2023-07-30T03:12:12;4.17;;;3.77;;
27161;SDS011;54464;50.558;9.704;2023-07-30T03:14:38;5.30;;;3.63;;
27161;SDS011;54464;50.558;9.704;2023-07-30T03:17:04;3.90;;;3.53;;
27161;SDS011;54464;50.558;9.704;2023-07-30T03:19:30;3.67;;;3.33;;
27161;SDS011;54464;50.558;9.704;2023-07-30T03:21:56;4.83;;;3.20;;
27161;SDS011;54464;50.558;9.704;2023-07-30T03:24:21;3.93;;;3.60;;
27161;SDS011;54464;50.558;9.704;2023-07-30T03:26:47;3.53;;;3.23;;
27161;SDS011;54464;50.558;9.704;2023-07-30T03:29:13;3.80;;;3.40;;
27161;SDS011;54464;50.558;9.704;2023-07-30T03:31:39;5.00;;;3.67;;
27161;SDS011;54464;50.558;9.704;2023-07-30T03:34:04;4.00;;;3.70;;
27161;SDS011;54464;50.558;9.704;2023-07-30T03:36:36;4.30;;;3.90;;
27161;SDS011;54464;50.558;9.704;2023-07-30T03:39:02;5.33;;;4.10;;
27161;SDS011;54464;50.558;9.704;2023-07-30T03:41:27;4.30;;;3.90;;
27161;SDS011;54464;50.558;9.704;2023-07-30T03:43:53;6.03;;;4.43;;
27161;SDS011;54464;50.558;9.704;2023-07-30T03:46:18;4.50;;;3.87;;
27161;SDS011;54464;50.558;9.704;2023-07-30T03:48:45;4.07;;;3.40;;
27161;SDS011;54464;50.558;9.704;2023-07-30T03:51:11;4.00;;;3.60;;
27161;SDS011;54464;50.558;9.704;2023-07-30T03:53:37;4.83;;;4.10;;
27161;SDS011;54464;50.558;9.704;2023-07-30T03:56:02;4.30;;;3.90;;
27161;SDS011;54464;50.558;9.704;2023-07-30T03:58:28;6.23;;;3.93;;
27161;SDS011;54464;50.558;9.704;2023-07-30T04:00:55;5.10;;;4.60;;
27161;SDS011;54464;50.558;9.704;2023-07-30T04:03:21;6.63;;;5.20;;
27161;SDS011;54464;50.558;9.704;2023-07-30T04:05:46;7.03;;;4.13;;
27161;SDS011;54464;50.558;9.704;2023-07-30T04:08:12;4.03;;;3.63;;
27161;SDS011;54464;50.558;9.704;2023-07-30T04:10:37;4.43;;;2.90;;
27161;SDS011;54464;50.558;9.704;2023-07-30T04:13:03;4.13;;;2.67;;
27161;SDS011;54464;50.558;9.704;2023-07-30T04:15:29;3.30;;;3.00;;
27161;SDS011;54464;50.558;9.704;2023-07-30T04:17:54;3.17;;;2.80;;
27161;SDS011;54464;50.558;9.704;2023-07-30T04:20:20;3.47;;;2.70;;
27161;SDS011;54464;50.558;9.704;2023-07-30T04:22:45;2.60;;;2.40;;
27161;SDS011;54464;50.558;9.704;2023-07-30T04:25:11;3.53;;;3.00;;
27161;SDS011;54464;50.558;9.704;2023-07-30T04:27:37;4.47;;;2.80;;
27161;SDS011;54464;50.558;9.704;2023-07-30T04:30:03;3.67;;;3.20;;
27161;SDS011;54464;50.558;9.704;2023-07-30T04:32:32;3.93;;;2.73;;
27161;SDS011;54464;50.558;9.704;2023-07-30T04:34:58;2.97;;;2.77;;
27161;SDS011;54464;50.558;9.704;2023-07-30T04:37:23;3.40;;;3.10;;
27161;SDS011;54464;50.558;9.704;2023-07-30T04:39:49;2.90;;;2.70;;
27161;SDS011;54464;50.558;9.704;2023-07-30T04:42:14;3.10;;;2.80;;
27161;SDS011;54464;50.558;9.704;2023-07-30T04:44:40;2.90;;;2.60;;
27161;SDS011;54464;50.558;9.704;2023-07-30T04:47:06;2.70;;;2.50;;
27161;SDS011;54464;50.558;9.704;2023-07-30T04:49:34;2.90;;;2.70;;
27161;SDS011;54464;50.558;9.704;2023-07-30T04:52:02;3.33;;;2.57;;
27161;SDS011;54464;50.558;9.704;2023-07-30T04:54:28;3.20;;;2.90;;
27161;SDS011;54464;50.558;9.704;2023-07-30T04:56:53;2.80;;;2.60;;
27161;SDS011;54464;50.558;9.704;2023-07-30T04:59:19;3.00;;;2.80;;
27161;SDS011;54464;50.558;9.704;2023-07-30T05:01:44;3.23;;;2.93;;
27161;SDS011;54464;50.558;9.704;2023-07-30T05:04:10;3.00;;;2.70;;
27161;SDS011;54464;50.558;9.704;2023-07-30T05:06:35;2.70;;;2.50;;
27161;SDS011;54464;50.558;9.704;2023-07-30T05:09:01;3.03;;;2.60;;
27161;SDS011;54464;50.558;9.704;2023-07-30T05:11:26;2.70;;;2.40;;
27161;SDS011;54464;50.558;9.704;2023-07-30T05:13:52;3.10;;;2.57;;
27161;SDS011;54464;50.558;9.704;2023-07-30T05:16:18;3.33;;;2.60;;
27161;SDS011;54464;50.558;9.704;2023-07-30T05:18:43;3.70;;;2.93;;
27161;SDS011;54464;50.558;9.704;2023-07-30T05:21:09;2.77;;;2.50;;
27161;SDS011;54464;50.558;9.704;2023-07-30T05:23:35;2.83;;;2.50;;
27161;SDS011;54464;50.558;9.704;2023-07-30T05:26:00;4.20;;;2.80;;
27161;SDS011;54464;50.558;9.704;2023-07-30T05:28:26;3.50;;;2.80;;
27161;SDS011;54464;50.558;9.704;2023-07-30T05:30:51;3.33;;;2.70;;
27161;SDS011;54464;50.558;9.704;2023-07-30T05:33:17;2.73;;;2.50;;
27161;SDS011;54464;50.558;9.704;2023-07-30T05:35:42;2.90;;;2.60;;
27161;SDS011;54464;50.558;9.704;2023-07-30T05:38:09;5.30;;;2.77;;
27161;SDS011;54464;50.558;9.704;2023-07-30T05:40:35;3.30;;;2.83;;
27161;SDS011;54464;50.558;9.704;2023-07-30T05:43:01;3.20;;;2.83;;
27161;SDS011;54464;50.558;9.704;2023-07-30T05:45:27;3.23;;;2.93;;
27161;SDS011;54464;50.558;9.704;2023-07-30T05:47:53;3.07;;;2.70;;
27161;SDS011;54464;50.558;9.704;2023-07-30T05:50:19;3.93;;;3.10;;
27161;SDS011;54464;50.558;9.704;2023-07-30T05:52:44;3.33;;;3.03;;
27161;SDS011;54464;50.558;9.704;2023-07-30T05:55:10;3.77;;;3.40;;
27161;SDS011;54464;50.558;9.704;2023-07-30T05:57:36;3.87;;;3.53;;
27161;SDS011;54464;50.558;9.704;2023-07-30T06:00:01;4.90;;;3.60;;
27161;SDS011;54464;50.558;9.704;2023-07-30T06:02:27;3.80;;;3.50;;
27161;SDS011;54464;50.558;9.704;2023-07-30T06:04:53;3.70;;;3.37;;
27161;SDS011;54464;50.558;9.704;2023-07-30T06:07:18;4.17;;;3.43;;
27161;SDS011;54464;50.558;9.704;2023-07-30T06:09:44;4.13;;;3.73;;
27161;SDS011;54464;50.558;9.704;2023-07-30T06:12:10;4.30;;;3.07;;
27161;SDS011;54464;50.558;9.704;2023-07-30T06:14:36;3.70;;;3.10;;
27161;SDS011;54464;50.558;9.704;2023-07-30T06:17:01;3.93;;;3.53;;
27161;SDS011;54464;50.558;9.704;2023-07-30T06:19:27;3.00;;;2.70;;
27161;SDS011;54464;50.558;9.704;2023-07-30T06:21:53;4.43;;;2.90;;
27161;SDS011;54464;50.558;9.704;2023-07-30T06:24:18;4.33;;;3.10;;
27161;SDS011;54464;50.558;9.704;2023-07-30T06:26:44;2.67;;;2.40;;
27161;SDS011;54464;50.558;9.704;2023-07-30T06:29:09;3.03;;;2.40;;
27161;SDS011;54464;50.558;9.704;2023-07-30T06:31:35;2.57;;;2.10;;
27161;SDS011;54464;50.558;9.704;2023-07-30T06:34:00;2.83;;;2.50;;
27161;SDS011;54464;50.558;9.704;2023-07-30T06:36:26;2.90;;;2.20;;
27161;SDS011;54464;50.558;9.704;2023-07-30T06:38:51;4.27;;;2.30;;
27161;SDS011;54464;50.558;9.704;2023-07-30T06:41:17;3.83;;;2.00;;
27161;SDS011;54464;50.558;9.704;2023-07-30T06:43:44;2.13;;;1.90;;
27161;SDS011;54464;50.558;9.704;2023-07-30T06:46:09;2.70;;;2.47;;
27161;SDS011;54464;50.558;9.704;2023-07-30T06:48:35;4.27;;;2.30;;
27161;SDS011;54464;50.558;9.704;2023-07-30T06:51:00;3.40;;;2.07;;
27161;SDS011;54464;50.558;9.704;2023-07-30T06:53:26;3.23;;;2.10;;
27161;SDS011;54464;50.558;9.704;2023-07-30T06:55:51;4.37;;;2.10;;
27161;SDS011;54464;50.558;9.704;2023-07-30T06:58:17;2.40;;;1.90;;
27161;SDS011;54464;50.558;9.704;2023-07-30T07:00:42;3.87;;;2.10;;
27161;SDS011;54464;50.558;9.704;2023-07-30T07:03:08;1.90;;;1.77;;
27161;SDS011;54464;50.558;9.704;2023-07-30T07:05:34;2.20;;;1.83;;
27161;SDS011;54464;50.558;9.704;2023-07-30T07:07:59;3.43;;;1.90;;
27161;SDS011;54464;50.558;9.704;2023-07-30T07:10:25;2.70;;;1.87;;
27161;SDS011;54464;50.558;9.704;2023-07-30T07:12:50;1.77;;;1.67;;
27161;SDS011;54464;50.558;9.704;2023-07-30T07:15:16;3.83;;;2.10;;
27161;SDS011;54464;50.558;9.704;2023-07-30T07:17:41;4.03;;;2.30;;
27161;SDS011;54464;50.558;9.704;2023-07-30T07:20:07;2.10;;;1.80;;
27161;SDS011;54464;50.558;9.704;2023-07-30T07:22:33;2.83;;;2.00;;
27161;SDS011;54464;50.558;9.704;2023-07-30T07:24:59;3.33;;;2.43;;
27161;SDS011;54464;50.558;9.704;2023-07-30T07:27:25;2.13;;;1.87;;
27161;SDS011;54464;50.558;9.704;2023-07-30T07:29:51;3.70;;;2.27;;
27161;SDS011;54464;50.558;9.704;2023-07-30T07:32:17;3.33;;;2.20;;
27161;SDS011;54464;50.558;9.704;2023-07-30T07:34:46;3.60;;;1.97;;
27161;SDS011;54464;50.558;9.704;2023-07-30T07:37:15;4.40;;;2.37;;
27161;SDS011;54464;50.558;9.704;2023-07-30T07:39:43;3.93;;;2.20;;
27161;SDS011;54464;50.558;9.704;2023-07-30T07:42:09;3.00;;;1.80;;
27161;SDS011;54464;50.558;9.704;2023-07-30T07:44:35;4.13;;;1.90;;
27161;SDS011;54464;50.558;9.704;2023-07-30T07:47:01;3.07;;;2.07;;
27161;SDS011;54464;50.558;9.704;2023-07-30T07:49:26;6.40;;;1.90;;
27161;SDS011;54464;50.558;9.704;2023-07-30T07:51:52;2.40;;;1.70;;
27161;SDS011;54464;50.558;9.704;2023-07-30T07:54:18;2.27;;;2.07;;
27161;SDS011;54464;50.558;9.704;2023-07-30T07:56:43;2.60;;;1.70;;
27161;SDS011;54464;50.558;9.704;2023-07-30T07:59:09;2.17;;;1.70;;
27161;SDS011;54464;50.558;9.704;2023-07-30T08:01:34;2.87;;;1.80;;
27161;SDS011;54464;50.558;9.704;2023-07-30T08:04:00;3.10;;;1.97;;
27161;SDS011;54464;50.558;9.704;2023-07-30T08:06:26;3.70;;;2.00;;
27161;SDS011;54464;50.558;9.704;2023-07-30T08:08:52;3.20;;;1.90;;
27161;SDS011;54464;50.558;9.704;2023-07-30T08:11:18;3.63;;;1.80;;
27161;SDS011;54464;50.558;9.704;2023-07-30T08:13:43;3.23;;;1.90;;
27161;SDS011;54464;50.558;9.704;2023-07-30T08:16:10;2.30;;;2.00;;
27161;SDS011;54464;50.558;9.704;2023-07-30T08:18:36;5.13;;;2.10;;
27161;SDS011;54464;50.558;9.704;2023-07-30T08:21:01;2.90;;;1.70;;
27161;SDS011;54464;50.558;9.704;2023-07-30T08:23:27;4.40;;;1.80;;
27161;SDS011;54464;50.558;9.704;2023-07-30T08:25:53;2.53;;;1.70;;
27161;SDS011;54464;50.558;9.704;2023-07-30T08:28:18;5.13;;;1.77;;
27161;SDS011;54464;50.558;9.704;2023-07-30T08:30:44;2.20;;;1.63;;
27161;SDS011;54464;50.558;9.704;2023-07-30T08:33:10;1.77;;;1.60;;
27161;SDS011;54464;50.558;9.704;2023-07-30T08:35:35;3.10;;;1.77;;
27161;SDS011;54464;50.558;9.704;2023-07-30T08:38:01;2.60;;;1.87;;
27161;SDS011;54464;50.558;9.704;2023-07-30T08:40:27;3.20;;;1.40;;
27161;SDS011;54464;50.558;9.704;2023-07-30T08:42:52;3.93;;;1.30;;
27161;SDS011;54464;50.558;9.704;2023-07-30T08:45:21;2.43;;;1.40;;
27161;SDS011;54464;50.558;9.704;2023-07-30T08:47:47;3.13;;;1.60;;
27161;SDS011;54464;50.558;9.704;2023-07-30T08:50:13;2.80;;;1.60;;
27161;SDS011;54464;50.558;9.704;2023-07-30T08:52:39;2.03;;;1.63;;
27161;SDS011;54464;50.558;9.704;2023-07-30T08:55:05;2.00;;;1.37;;
27161;SDS011;54464;50.558;9.704;2023-07-30T08:57:32;2.40;;;1.63;;
27161;SDS011;54464;50.558;9.704;2023-07-30T09:02:34;2.00;;;1.80;;
27161;SDS011;54464;50.558;9.704;2023-07-30T09:05:04;3.50;;;1.83;;
27161;SDS011;54464;50.558;9.704;2023-07-30T09:07:31;4.27;;;1.83;;
27161;SDS011;54464;50.558;9.704;2023-07-30T09:09:56;1.90;;;1.60;;
27161;SDS011;54464;50.558;9.704;2023-07-30T09:12:26;3.17;;;1.67;;
27161;SDS011;54464;50.558;9.704;2023-07-30T09:14:59;2.13;;;1.60;;
27161;SDS011;54464;50.558;9.704;2023-07-30T09:17:26;2.67;;;1.73;;
27161;SDS011;54464;50.558;9.704;2023-07-30T09:19:52;2.67;;;1.90;;
27161;SDS011;54464;50.558;9.704;2023-07-30T09:22:25;5.30;;;1.67;;
27161;SDS011;54464;50.558;9.704;2023-07-30T09:24:52;3.20;;;2.00;;
27161;SDS011;54464;50.558;9.704;2023-07-30T09:27:21;3.83;;;2.27;;
27161;SDS011;54464;50.558;9.704;2023-07-30T09:29:50;2.27;;;2.00;;
27161;SDS011;54464;50.558;9.704;2023-07-30T09:32:17;2.93;;;1.97;;
27161;SDS011;54464;50.558;9.704;2023-07-30T09:34:44;2.40;;;2.20;;
27161;SDS011;54464;50.558;9.704;2023-07-30T09:37:10;2.00;;;1.80;;
27161;SDS011;54464;50.558;9.704;2023-07-30T09:39:36;2.83;;;2.13;;
27161;SDS011;54464;50.558;9.704;2023-07-30T09:42:03;2.20;;;1.97;;
27161;SDS011;54464;50.558;9.704;2023-07-30T09:44:31;2.53;;;1.90;;
27161;SDS011;54464;50.558;9.704;2023-07-30T09:46:58;3.17;;;1.90;;
27161;SDS011;54464;50.558;9.704;2023-07-30T09:49:23;2.37;;;1.50;;
27161;SDS011;54464;50.558;9.704;2023-07-30T09:51:49;2.27;;;1.70;;
27161;SDS011;54464;50.558;9.704;2023-07-30T09:54:16;1.47;;;1.37;;
27161;SDS011;54464;50.558;9.704;2023-07-30T09:56:42;2.53;;;1.50;;
27161;SDS011;54464;50.558;9.704;2023-07-30T09:59:08;1.60;;;1.50;;
27161;SDS011;54464;50.558;9.704;2023-07-30T10:01:44;1.90;;;1.33;;
27161;SDS011;54464;50.558;9.704;2023-07-30T10:04:12;1.43;;;1.20;;
27161;SDS011;54464;50.558;9.704;2023-07-30T10:06:40;1.13;;;0.90;;
27161;SDS011;54464;50.558;9.704;2023-07-30T10:09:08;1.40;;;1.20;;
27161;SDS011;54464;50.558;9.704;2023-07-30T10:11:37;1.87;;;1.30;;
27161;SDS011;54464;50.558;9.704;2023-07-30T10:14:04;1.70;;;1.37;;
27161;SDS011;54464;50.558;9.704;2023-07-30T10:16:31;2.63;;;1.33;;
27161;SDS011;54464;50.558;9.704;2023-07-30T10:18:56;1.27;;;1.17;;
27161;SDS011;54464;50.558;9.704;2023-07-30T10:21:23;1.77;;;1.10;;
27161;SDS011;54464;50.558;9.704;2023-07-30T10:23:57;1.20;;;1.10;;
27161;SDS011;54464;50.558;9.704;2023-07-30T10:26:27;2.60;;;1.20;;
27161;SDS011;54464;50.558;9.704;2023-07-30T10:31:38;1.43;;;1.30;;
27161;SDS011;54464;50.558;9.704;2023-07-30T10:34:09;1.80;;;1.30;;
27161;SDS011;54464;50.558;9.704;2023-07-30T10:41:49;1.90;;;1.30;;
27161;SDS011;54464;50.558;9.704;2023-07-30T10:44:19;1.40;;;1.30;;
27161;SDS011;54464;50.558;9.704;2023-07-30T10:46:48;1.50;;;1.40;;
27161;SDS011;54464;50.558;9.704;2023-07-30T10:49:14;2.20;;;1.60;;
27161;SDS011;54464;50.558;9.704;2023-07-30T10:51:39;2.30;;;1.50;;
27161;SDS011;54464;50.558;9.704;2023-07-30T10:54:06;1.83;;;1.40;;
27161;SDS011;54464;50.558;9.704;2023-07-30T10:56:35;1.70;;;1.43;;
27161;SDS011;54464;50.558;9.704;2023-07-30T10:59:03;1.57;;;1.37;;
27161;SDS011;54464;50.558;9.704;2023-07-30T11:01:31;1.67;;;1.50;;
27161;SDS011;54464;50.558;9.704;2023-07-30T11:03:56;1.57;;;1.40;;
27161;SDS011;54464;50.558;9.704;2023-07-30T11:06:22;1.40;;;1.30;;
27161;SDS011;54464;50.558;9.704;2023-07-30T11:08:48;1.87;;;1.50;;
27161;SDS011;54464;50.558;9.704;2023-07-30T11:11:14;2.30;;;2.10;;
27161;SDS011;54464;50.558;9.704;2023-07-30T11:13:41;1.70;;;1.60;;
27161;SDS011;54464;50.558;9.704;2023-07-30T11:16:09;2.13;;;1.47;;
27161;SDS011;54464;50.558;9.704;2023-07-30T11:18:36;2.97;;;1.73;;
27161;SDS011;54464;50.558;9.704;2023-07-30T11:21:06;2.60;;;1.87;;
27161;SDS011;54464;50.558;9.704;2023-07-30T11:23:32;2.07;;;1.90;;
27161;SDS011;54464;50.558;9.704;2023-07-30T11:26:00;4.10;;;2.20;;
27161;SDS011;54464;50.558;9.704;2023-07-30T11:28:27;2.33;;;2.13;;
27161;SDS011;54464;50.558;9.704;2023-07-30T11:31:00;2.70;;;2.50;;
27161;SDS011;54464;50.558;9.704;2023-07-30T11:33:27;3.50;;;1.30;;
27161;SDS011;54464;50.558;9.704;2023-07-30T11:35:56;3.83;;;1.60;;
27161;SDS011;54464;50.558;9.704;2023-07-30T11:38:24;2.53;;;1.30;;
27161;SDS011;54464;50.558;9.704;2023-07-30T11:40:51;2.87;;;1.50;;
27161;SDS011;54464;50.558;9.704;2023-07-30T11:43:18;3.83;;;1.50;;
27161;SDS011;54464;50.558;9.704;2023-07-30T11:45:44;2.87;;;1.77;;
27161;SDS011;54464;50.558;9.704;2023-07-30T11:48:10;6.47;;;2.00;;
27161;SDS011;54464;50.558;9.704;2023-07-30T11:50:43;5.37;;;1.97;;
27161;SDS011;54464;50.558;9.704;2023-07-30T11:53:09;3.90;;;2.10;;
27161;SDS011;54464;50.558;9.704;2023-07-30T11:55:38;3.10;;;2.30;;
27161;SDS011;54464;50.558;9.704;2023-07-30T11:58:05;2.77;;;2.27;;
27161;SDS011;54464;50.558;9.704;2023-07-30T12:00:32;4.27;;;2.10;;
27161;SDS011;54464;50.558;9.704;2023-07-30T12:03:05;3.07;;;2.53;;
27161;SDS011;54464;50.558;9.704;2023-07-30T12:05:35;3.17;;;2.50;;
27161;SDS011;54464;50.558;9.704;2023-07-30T12:08:03;2.80;;;2.50;;
27161;SDS011;54464;50.558;9.704;2023-07-30T12:10:41;3.70;;;2.80;;
27161;SDS011;54464;50.558;9.704;2023-07-30T12:13:15;4.33;;;2.90;;
27161;SDS011;54464;50.558;9.704;2023-07-30T12:15:51;4.47;;;2.83;;
27161;SDS011;54464;50.558;9.704;2023-07-30T12:18:18;4.93;;;2.80;;
27161;SDS011;54464;50.558;9.704;2023-07-30T12:20:48;2.93;;;2.63;;
27161;SDS011;54464;50.558;9.704;2023-07-30T12:23:18;6.17;;;2.43;;
27161;SDS011;54464;50.558;9.704;2023-07-30T12:25:45;3.93;;;2.27;;
27161;SDS011;54464;50.558;9.704;2023-07-30T12:28:11;3.23;;;2.60;;
27161;SDS011;54464;50.558;9.704;2023-07-30T12:30:37;3.33;;;2.67;;
27161;SDS011;54464;50.558;9.704;2023-07-30T12:33:05;4.87;;;2.47;;
27161;SDS011;54464;50.558;9.704;2023-07-30T12:35:31;4.90;;;2.10;;
27161;SDS011;54464;50.558;9.704;2023-07-30T12:37:58;3.47;;;1.90;;
27161;SDS011;54464;50.558;9.704;2023-07-30T12:40:24;2.97;;;1.90;;
27161;SDS011;54464;50.558;9.704;2023-07-30T12:42:49;5.07;;;1.50;;
27161;SDS011;54464;50.558;9.704;2023-07-30T12:45:15;2.37;;;1.60;;
27161;SDS011;54464;50.558;9.704;2023-07-30T12:47:41;3.90;;;1.57;;
27161;SDS011;54464;50.558;9.704;2023-07-30T12:50:07;2.97;;;1.80;;
27161;SDS011;54464;50.558;9.704;2023-07-30T12:52:33;1.80;;;1.70;;
27161;SDS011;54464;50.558;9.704;2023-07-30T12:54:59;4.40;;;1.80;;
27161;SDS011;54464;50.558;9.704;2023-07-30T12:57:25;6.60;;;1.93;;
27161;SDS011;54464;50.558;9.704;2023-07-30T12:59:51;3.63;;;2.10;;
27161;SDS011;54464;50.558;9.704;2023-07-30T13:02:16;4.07;;;1.80;;
27161;SDS011;54464;50.558;9.704;2023-07-30T13:04:45;3.60;;;2.20;;
27161;SDS011;54464;50.558;9.704;2023-07-30T13:07:10;4.57;;;1.90;;
27161;SDS011;54464;50.558;9.704;2023-07-30T13:09:36;3.37;;;1.70;;
27161;SDS011;54464;50.558;9.704;2023-07-30T13:12:01;3.10;;;1.70;;
27161;SDS011;54464;50.558;9.704;2023-07-30T13:14:30;6.17;;;1.60;;
27161;SDS011;54464;50.558;9.704;2023-07-30T13:16:55;3.77;;;1.70;;
27161;SDS011;54464;50.558;9.704;2023-07-30T13:19:21;4.90;;;1.60;;
27161;SDS011;54464;50.558;9.704;2023-07-30T13:21:47;4.30;;;1.60;;
27161;SDS011;54464;50.558;9.704;2023-07-30T13:24:12;4.13;;;1.80;;
27161;SDS011;54464;50.558;9.704;2023-07-30T13:26:38;5.00;;;1.60;;
27161;SDS011;54464;50.558;9.704;2023-07-30T13:29:03;3.87;;;1.80;;
27161;SDS011;54464;50.558;9.704;2023-07-30T13:31:29;4.80;;;2.03;;
27161;SDS011;54464;50.558;9.704;2023-07-30T13:33:55;3.80;;;1.70;;
27161;SDS011;54464;50.558;9.704;2023-07-30T13:36:21;3.93;;;1.53;;
27161;SDS011;54464;50.558;9.704;2023-07-30T13:38:47;3.33;;;1.73;;
27161;SDS011;54464;50.558;9.704;2023-07-30T13:41:12;5.30;;;1.80;;
27161;SDS011;54464;50.558;9.704;2023-07-30T13:43:38;3.30;;;1.70;;
27161;SDS011;54464;50.558;9.704;2023-07-30T13:46:04;2.73;;;1.50;;
27161;SDS011;54464;50.558;9.704;2023-07-30T13:48:29;3.63;;;1.60;;
27161;SDS011;54464;50.558;9.704;2023-07-30T13:50:55;3.83;;;1.60;;
27161;SDS011;54464;50.558;9.704;2023-07-30T13:53:23;4.23;;;1.80;;
27161;SDS011;54464;50.558;9.704;2023-07-30T13:55:48;2.53;;;1.67;;
27161;SDS011;54464;50.558;9.704;2023-07-30T13:58:14;4.60;;;1.50;;
27161;SDS011;54464;50.558;9.704;2023-07-30T14:00:40;3.37;;;1.83;;
27161;SDS011;54464;50.558;9.704;2023-07-30T14:03:07;5.03;;;1.73;;
27161;SDS011;54464;50.558;9.704;2023-07-30T14:05:32;4.50;;;1.87;;
27161;SDS011;54464;50.558;9.704;2023-07-30T14:07:58;3.93;;;1.50;;
27161;SDS011;54464;50.558;9.704;2023-07-30T14:10:31;4.47;;;1.40;;
27161;SDS011;54464;50.558;9.704;2023-07-30T14:12:58;3.47;;;1.50;;
27161;SDS011;54464;50.558;9.704;2023-07-30T14:15:24;4.37;;;1.40;;
27161;SDS011;54464;50.558;9.704;2023-07-30T14:17:50;5.03;;;1.40;;
27161;SDS011;54464;50.558;9.704;2023-07-30T14:20:16;2.97;;;1.40;;
27161;SDS011;54464;50.558;9.704;2023-07-30T14:22:42;3.17;;;1.30;;
27161;SDS011;54464;50.558;9.704;2023-07-30T14:25:08;2.87;;;1.47;;
27161;SDS011;54464;50.558;9.704;2023-07-30T14:27:33;6.03;;;2.20;;
27161;SDS011;54464;50.558;9.704;2023-07-30T14:29:59;3.27;;;1.40;;
27161;SDS011;54464;50.558;9.704;2023-07-30T14:32:24;4.33;;;1.57;;
27161;SDS011;54464;50.558;9.704;2023-07-30T14:34:50;3.20;;;1.60;;
27161;SDS011;54464;50.558;9.704;2023-07-30T14:37:15;2.90;;;1.40;;
27161;SDS011;54464;50.558;9.704;2023-07-30T14:39:41;4.60;;;1.40;;
27161;SDS011;54464;50.558;9.704;2023-07-30T14:42:07;3.93;;;1.27;;
27161;SDS011;54464;50.558;9.704;2023-07-30T14:44:34;3.53;;;1.40;;
27161;SDS011;54464;50.558;9.704;2023-07-30T14:46:59;3.03;;;1.40;;
27161;SDS011;54464;50.558;9.704;2023-07-30T14:49:25;4.20;;;1.40;;
27161;SDS011;54464;50.558;9.704;2023-07-30T14:51:51;2.90;;;1.40;;
27161;SDS011;54464;50.558;9.704;2023-07-30T14:54:17;4.57;;;1.63;;